Time;durP1;ratioP1;P1;durP2;ratioP2;P2;SDS_P1;SDS_P2;PMS_P1;PMS_P2;Temp;Humidity;BMP_temperature;BMP_pressure;BME280_temperature;BME280_humidity;BME280_pressure;Samples;Min_cycle;Max_cycle;Signal;HPM_P1;HPM_P2
2022/10/02 00:01:55;;;;;;;22.05;2.85;;;12.80;99.90;;;;;;5013444;28;20099;-59
2022/10/02 00:04:27;;;;;;;25.15;2.97;;;12.60;99.90;;;;;;5017518;28;20033;-58
2022/10/02 00:06:59;;;;;;;22.60;3.60;;;12.50;99.90;;;;;;5019343;28;20032;-58
2022/10/02 00:09:34;;;;;;;28.08;3.28;;;12.50;99.90;;;;;;5021853;28;20031;-56
2022/10/02 00:12:00;;;;;;;26.92;2.90;;;12.50;99.90;;;;;;5015801;28;20037;-57
2022/10/02 00:14:34;;;;;;;25.15;4.22;;;12.50;99.90;;;;;;5024770;28;20121;-58
2022/10/02 00:17:01;;;;;;;29.08;4.03;;;12.60;99.90;;;;;;5016005;28;20463;-55
2022/10/02 00:19:27;;;;;;;25.42;3.55;;;12.60;99.90;;;;;;5021369;28;20053;-56
2022/10/02 00:21:55;;;;;;;23.95;3.38;;;12.60;99.90;;;;;;5010179;28;20068;-58
2022/10/02 00:24:31;;;;;;;17.23;2.80;;;12.60;99.90;;;;;;5020234;28;20439;-59
2022/10/02 00:27:04;;;;;;;20.38;2.65;;;12.70;99.90;;;;;;5013656;28;20113;-58
2022/10/02 00:29:32;;;;;;;28.95;3.70;;;12.60;99.90;;;;;;5015550;28;20502;-57
2022/10/02 00:32:10;;;;;;;23.15;3.10;;;12.60;99.90;;;;;;5015884;28;20444;-57
2022/10/02 00:34:52;;;;;;;28.92;3.42;;;12.60;99.90;;;;;;5016223;28;20519;-58
2022/10/02 00:37:50;;;;;;;31.55;3.65;;;12.80;99.90;;;;;;5016214;28;20273;-58
2022/10/02 00:40:35;;;;;;;38.55;3.78;;;13.00;99.90;;;;;;5016273;28;20062;-57
2022/10/02 00:43:16;;;;;;;22.88;3.42;;;13.00;99.90;;;;;;5015729;28;20026;-59
2022/10/02 00:45:47;;;;;;;27.00;3.80;;;13.10;99.90;;;;;;5016504;28;20045;-58
2022/10/02 00:48:45;;;;;;;27.10;3.50;;;13.00;99.90;;;;;;5014965;28;20400;-58
2022/10/02 00:51:41;;;;;;;14.15;2.13;;;13.00;99.90;;;;;;5015547;28;20577;-58
2022/10/02 00:54:21;;;;;;;31.38;3.85;;;12.90;99.90;;;;;;5012527;28;20033;-57
2022/10/02 00:56:55;;;;;;;30.90;3.35;;;13.00;99.90;;;;;;5022448;28;20021;-58
2022/10/02 00:59:52;;;;;;;14.60;3.28;;;13.10;99.90;;;;;;5013436;28;20105;-60
2022/10/02 01:02:43;;;;;;;34.40;5.65;;;13.10;99.90;;;;;;5012790;28;20045;-58
2022/10/02 01:05:09;;;;;;;30.67;3.97;;;13.00;99.90;;;;;;5012375;28;20388;-58
2022/10/02 01:07:38;;;;;;;21.95;3.70;;;13.00;99.90;;;;;;5019679;28;20057;-58
2022/10/02 01:10:05;;;;;;;19.80;2.92;;;13.00;99.90;;;;;;5014795;28;20069;-58
2022/10/02 01:12:30;;;;;;;37.05;3.75;;;12.90;99.90;;;;;;5017270;28;20087;-58
2022/10/02 01:14:56;;;;;;;26.77;3.85;;;13.10;99.90;;;;;;5019922;28;20060;-59
2022/10/02 01:17:29;;;;;;;27.48;4.00;;;13.20;99.90;;;;;;5026066;28;20155;-58
2022/10/02 01:19:55;;;;;;;36.83;4.97;;;13.10;99.90;;;;;;5027587;28;20391;-58
2022/10/02 01:22:45;;;;;;;22.10;3.72;;;13.20;99.90;;;;;;5018162;28;20025;-59
2022/10/02 01:25:11;;;;;;;31.52;5.00;;;13.30;99.90;;;;;;5022817;28;20034;-58
2022/10/02 01:27:37;;;;;;;26.55;4.38;;;13.30;99.90;;;;;;5026027;28;20037;-58
2022/10/02 01:30:16;;;;;;;34.33;5.03;;;13.40;99.90;;;;;;5025258;28;20107;-57
2022/10/02 01:32:47;;;;;;;24.92;4.40;;;13.60;99.90;;;;;;5024786;28;20100;-58
2022/10/02 01:35:13;;;;;;;20.60;3.75;;;13.60;99.90;;;;;;5033939;28;20099;-58
2022/10/02 01:37:41;;;;;;;28.60;4.32;;;13.70;99.90;;;;;;5029632;28;20025;-56
2022/10/02 01:40:21;;;;;;;29.80;4.88;;;13.60;99.90;;;;;;5030021;28;20042;-58
2022/10/02 01:42:47;;;;;;;31.92;4.90;;;13.60;99.90;;;;;;5029336;28;20022;-58
2022/10/02 01:45:12;;;;;;;33.78;4.75;;;13.60;99.90;;;;;;5027840;28;20478;-57
2022/10/02 01:48:06;;;;;;;46.40;5.70;;;13.70;99.90;;;;;;5030645;28;20091;-57
2022/10/02 01:50:46;;;;;;;25.00;3.58;;;13.80;99.90;;;;;;5029650;28;20037;-57
2022/10/02 01:53:31;;;;;;;34.85;4.38;;;13.80;99.90;;;;;;5030025;28;20041;-58
2022/10/02 01:56:03;;;;;;;52.40;4.95;;;13.90;99.90;;;;;;5026969;28;20068;-56
2022/10/02 01:58:40;;;;;;;29.90;4.07;;;14.00;99.90;;;;;;5025134;28;20032;-57
2022/10/02 02:01:24;;;;;;;47.30;5.15;;;14.00;99.90;;;;;;5027998;28;20022;-56
2022/10/02 02:03:57;;;;;;;33.15;4.30;;;14.00;99.90;;;;;;5024105;28;20202;-56
2022/10/02 02:06:37;;;;;;;38.50;5.13;;;13.90;99.90;;;;;;5027294;28;20033;-58
2022/10/02 02:09:12;;;;;;;42.42;4.70;;;13.90;99.90;;;;;;5023641;28;20640;-58
2022/10/02 02:11:43;;;;;;;37.42;5.70;;;14.00;99.90;;;;;;5030312;28;20083;-60
2022/10/02 02:14:28;;;;;;;33.58;4.90;;;14.10;99.90;;;;;;5028719;28;20029;-59
2022/10/02 02:17:12;;;;;;;;;;;14.10;99.90;;;;;;5027411;28;20048;-54
2022/10/02 02:19:53;;;;;;;35.80;4.28;;;14.10;99.90;;;;;;5021873;28;20412;-62
2022/10/02 02:22:27;;;;;;;44.50;5.32;;;14.20;99.90;;;;;;5027434;28;20076;-58
2022/10/02 02:25:02;;;;;;;34.33;5.07;;;14.20;99.90;;;;;;5028613;28;20024;-60
2022/10/02 02:27:33;;;;;;;33.47;5.57;;;14.10;99.90;;;;;;5030492;28;20032;-58
2022/10/02 02:30:06;;;;;;;30.15;4.13;;;14.20;99.90;;;;;;5026549;28;20486;-60
2022/10/02 02:32:35;;;;;;;39.55;4.03;;;14.20;99.90;;;;;;5028071;28;20039;-58
2022/10/02 02:35:07;;;;;;;37.55;4.75;;;14.20;99.90;;;;;;5027730;28;20372;-59
2022/10/02 02:37:36;;;;;;;28.20;4.93;;;14.10;99.90;;;;;;5028553;28;20056;-59
2022/10/02 02:40:11;;;;;;;30.13;4.68;;;14.00;99.90;;;;;;5023988;28;20017;-60
2022/10/02 02:42:42;;;;;;;36.05;4.20;;;14.10;99.90;;;;;;5034107;28;20018;-60
2022/10/02 02:45:18;;;;;;;37.35;4.00;;;14.10;99.90;;;;;;5024171;28;20097;-60
2022/10/02 02:47:49;;;;;;;32.05;5.53;;;14.00;99.90;;;;;;5024204;28;20030;-60
2022/10/02 02:50:21;;;;;;;31.23;5.00;;;14.00;99.90;;;;;;5025093;28;20116;-60
2022/10/02 02:53:00;;;;;;;30.40;6.88;;;14.10;99.90;;;;;;5025170;28;20033;-61
2022/10/02 02:55:47;;;;;;;21.15;4.30;;;14.20;99.90;;;;;;5019147;28;20029;-59
2022/10/02 02:58:21;;;;;;;26.85;3.90;;;14.30;99.90;;;;;;5022642;28;20029;-59
2022/10/02 03:00:46;;;;;;;27.33;4.05;;;14.30;99.90;;;;;;5023108;28;20539;-61
2022/10/02 03:03:12;;;;;;;35.72;4.97;;;14.30;99.90;;;;;;5018843;28;20113;-60
2022/10/02 03:05:44;;;;;;;30.85;4.60;;;14.30;99.90;;;;;;5024800;28;20399;-62
2022/10/02 03:08:25;;;;;;;28.50;4.47;;;14.30;99.90;;;;;;5024533;28;20468;-60
2022/10/02 03:10:54;;;;;;;36.85;5.20;;;14.30;99.90;;;;;;5023477;28;20025;-59
2022/10/02 03:13:28;;;;;;;39.75;4.88;;;14.30;99.90;;;;;;5025683;28;20052;-59
2022/10/02 03:16:15;;;;;;;18.90;4.53;;;14.30;99.90;;;;;;5023148;28;20034;-60
2022/10/02 03:19:04;;;;;;;45.72;5.68;;;14.30;99.90;;;;;;5028303;28;20022;-60
2022/10/02 03:21:46;;;;;;;26.92;4.32;;;14.40;99.90;;;;;;5021712;28;20049;-59
2022/10/02 03:24:17;;;;;;;29.75;4.60;;;14.40;99.90;;;;;;5017328;28;20087;-59
2022/10/02 03:26:46;;;;;;;29.30;5.10;;;14.40;99.90;;;;;;5021973;28;20462;-59
2022/10/02 03:29:37;;;;;;;24.65;3.90;;;14.50;99.90;;;;;;5025353;28;20026;-60
2022/10/02 03:32:04;;;;;;;28.50;4.05;;;14.60;99.90;;;;;;5020812;28;20485;-60
2022/10/02 03:34:32;;;;;;;27.35;3.63;;;14.60;99.90;;;;;;5013929;28;20029;-60
2022/10/02 03:36:59;;;;;;;36.55;3.60;;;14.60;99.90;;;;;;5019953;28;20107;-59
2022/10/02 03:39:25;;;;;;;24.05;3.33;;;14.60;99.90;;;;;;5020158;28;20045;-60
2022/10/02 03:41:50;;;;;;;30.30;3.78;;;14.50;99.90;;;;;;5014087;28;20025;-61
2022/10/02 03:44:16;;;;;;;27.80;3.58;;;14.50;99.90;;;;;;5019629;28;20134;-59
2022/10/02 03:46:41;;;;;;;25.17;3.45;;;14.40;99.90;;;;;;5018456;28;20022;-60
2022/10/02 03:49:07;;;;;;;20.08;3.47;;;14.40;99.90;;;;;;5019271;28;20041;-60
2022/10/02 03:51:32;;;;;;;33.22;4.78;;;14.40;99.90;;;;;;5018700;28;20402;-61
2022/10/02 03:53:58;;;;;;;29.95;3.78;;;14.30;99.90;;;;;;5019754;28;20033;-59
2022/10/02 03:56:29;;;;;;;25.27;4.85;;;14.30;99.90;;;;;;5020946;28;20049;-59
2022/10/02 03:58:59;;;;;;;31.75;5.15;;;14.30;99.90;;;;;;5017295;28;20107;-59
2022/10/02 04:01:36;;;;;;;29.17;4.35;;;14.30;99.90;;;;;;5016360;28;20021;-59
2022/10/02 04:04:13;;;;;;;32.70;4.43;;;14.30;99.90;;;;;;5017487;28;20113;-59
2022/10/02 04:06:59;;;;;;;43.80;5.25;;;14.30;99.90;;;;;;5019790;28;20618;-59
2022/10/02 04:09:38;;;;;;;42.05;4.53;;;14.20;99.90;;;;;;5017478;28;20083;-59
2022/10/02 04:12:12;;;;;;;36.08;3.90;;;14.20;99.90;;;;;;5018806;28;20029;-60
2022/10/02 04:15:17;;;;;;;28.67;4.00;;;14.20;99.90;;;;;;5020988;28;20112;-59
2022/10/02 04:18:01;;;;;;;23.92;4.57;;;14.10;99.90;;;;;;4997594;28;20054;-58
2022/10/02 04:20:40;;;;;;;36.25;4.93;;;14.10;99.90;;;;;;5018049;28;20049;-59
2022/10/02 04:23:20;;;;;;;27.55;4.15;;;14.10;99.90;;;;;;5017437;28;20038;-59
2022/10/02 04:25:52;;;;;;;34.45;4.35;;;14.10;99.90;;;;;;5018420;28;20049;-60
2022/10/02 04:28:24;;;;;;;40.65;5.00;;;14.10;99.90;;;;;;5018004;28;20037;-59
2022/10/02 04:30:52;;;;;;;38.97;5.38;;;14.10;99.90;;;;;;5019822;28;20062;-58
2022/10/02 04:33:20;;;;;;;30.17;3.92;;;14.10;99.90;;;;;;5042699;23;20655;-62
2022/10/02 04:35:58;;;;;;;36.17;4.28;;;14.10;99.90;;;;;;5038465;28;20048;-63
2022/10/02 04:38:59;;;;;;;26.85;4.90;;;14.10;99.90;;;;;;5038779;28;20029;-63
2022/10/02 04:41:51;;;;;;;21.35;3.92;;;14.10;99.90;;;;;;5038311;28;20094;-62
2022/10/02 04:44:29;;;;;;;21.48;3.33;;;14.10;99.90;;;;;;5021837;28;20592;-63
2022/10/02 04:47:10;;;;;;;20.52;3.65;;;14.10;99.90;;;;;;5012972;28;20444;-62
2022/10/02 04:50:02;;;;;;;29.33;5.55;;;14.10;99.90;;;;;;5012659;28;20029;-63
2022/10/02 04:53:15;;;;;;;24.55;3.33;;;14.10;99.90;;;;;;5010155;28;20033;-62
2022/10/02 04:55:55;;;;;;;38.47;3.20;;;14.00;99.90;;;;;;5007373;28;20103;-63
2022/10/02 04:58:37;;;;;;;24.75;4.85;;;14.00;99.90;;;;;;5019168;28;20026;-62
2022/10/02 05:01:15;;;;;;;29.83;3.38;;;14.10;99.90;;;;;;5019090;28;20147;-63
2022/10/02 05:04:05;;;;;;;22.80;3.00;;;14.00;99.90;;;;;;5014079;28;20053;-62
2022/10/02 05:07:07;;;;;;;34.70;4.50;;;13.90;99.90;;;;;;5015382;28;20515;-61
2022/10/02 05:09:39;;;;;;;28.58;4.40;;;13.90;99.90;;;;;;4961750;28;20082;-62
2022/10/02 05:12:26;;;;;;;39.58;3.80;;;13.90;99.90;;;;;;5006842;28;20510;-63
2022/10/02 05:15:18;;;;;;;26.48;3.15;;;13.90;99.90;;;;;;5016054;28;20507;-63
2022/10/02 05:18:03;;;;;;;25.88;3.20;;;13.90;99.90;;;;;;5017552;28;20025;-63
2022/10/02 05:20:56;;;;;;;14.82;4.07;;;13.90;99.90;;;;;;4986642;28;20115;-60
2022/10/02 05:23:38;;;;;;;19.83;4.10;;;13.90;99.90;;;;;;5015305;28;20022;-60
2022/10/02 05:26:24;;;;;;;31.63;4.25;;;13.90;99.90;;;;;;5011523;28;20029;-62
2022/10/02 05:29:12;;;;;;;23.45;3.25;;;13.90;99.90;;;;;;5016555;28;20403;-61
2022/10/02 05:31:55;;;;;;;23.55;3.35;;;13.90;99.90;;;;;;5016495;28;20048;-60
2022/10/02 05:34:30;;;;;;;23.45;3.30;;;13.90;99.90;;;;;;5020184;28;20040;-58
2022/10/02 05:36:55;;;;;;;;;;;13.90;99.90;;;;;;5013394;28;20029;-61
2022/10/02 05:39:39;;;;;;;22.33;3.83;;;13.90;99.90;;;;;;5011605;28;19909;-61
2022/10/02 05:42:26;;;;;;;21.13;5.03;;;13.90;99.90;;;;;;5012225;28;20022;-61
2022/10/02 05:45:01;;;;;;;20.95;3.05;;;13.90;99.90;;;;;;5028208;28;20025;-61
2022/10/02 05:47:35;;;;;;;28.65;3.88;;;13.90;99.90;;;;;;5017732;28;20080;-61
2022/10/02 05:50:22;;;;;;;21.15;3.60;;;13.90;99.90;;;;;;5021053;28;20638;-62
2022/10/02 05:53:17;;;;;;;22.58;3.08;;;13.90;99.90;;;;;;5014366;28;20053;-60
2022/10/02 05:55:50;;;;;;;31.25;3.63;;;13.90;99.90;;;;;;5022922;28;20030;-59
2022/10/02 05:58:49;;;;;;;19.33;4.30;;;13.90;99.90;;;;;;5020399;28;20522;-60
2022/10/02 06:01:24;;;;;;;22.13;3.28;;;13.90;99.90;;;;;;4987996;28;20049;-58
2022/10/02 06:03:55;;;;;;;22.77;3.63;;;13.80;99.90;;;;;;5019514;28;20022;-60
2022/10/02 06:06:46;;;;;;;17.92;4.00;;;13.80;99.90;;;;;;5016907;28;20052;-60
2022/10/02 06:09:22;;;;;;;17.98;3.17;;;13.80;99.90;;;;;;5021486;28;20467;-60
2022/10/02 06:11:54;;;;;;;23.27;4.03;;;13.80;99.90;;;;;;5014114;28;20034;-58
2022/10/02 06:14:29;;;;;;;15.85;3.42;;;13.80;99.90;;;;;;5011324;28;20048;-58
2022/10/02 06:17:03;;;;;;;23.17;3.80;;;13.80;99.90;;;;;;5010534;28;20048;-61
2022/10/02 06:19:51;;;;;;;18.95;4.07;;;13.80;99.90;;;;;;5014649;28;20065;-62
2022/10/02 06:22:20;;;;;;;20.45;4.40;;;13.90;99.90;;;;;;5011936;28;20034;-60
2022/10/02 06:24:49;;;;;;;25.65;3.70;;;13.80;99.90;;;;;;5013355;28;20116;-61
2022/10/02 06:27:32;;;;;;;13.60;3.63;;;13.90;99.90;;;;;;5014014;28;20046;-61
2022/10/02 06:30:04;;;;;;;21.73;3.75;;;13.90;99.90;;;;;;5017312;28;20038;-58
2022/10/02 06:32:32;;;;;;;11.75;3.72;;;14.00;99.90;;;;;;5009632;28;20061;-61
2022/10/02 06:34:58;;;;;;;20.08;4.15;;;13.90;99.90;;;;;;5013694;28;20029;-60
2022/10/02 06:38:00;;;;;;;26.38;5.63;;;13.90;99.90;;;;;;5014218;28;20040;-61
2022/10/02 06:40:43;;;;;;;20.02;5.50;;;14.00;99.90;;;;;;5017059;28;20026;-61
2022/10/02 06:43:13;;;;;;;20.98;5.53;;;14.00;99.90;;;;;;5010145;28;20541;-62
2022/10/02 06:45:59;;;;;;;22.98;5.85;;;14.00;99.90;;;;;;5013975;28;20123;-60
2022/10/02 06:48:51;;;;;;;16.73;4.10;;;14.00;99.90;;;;;;5019708;28;20017;-61
2022/10/02 06:51:40;;;;;;;13.73;5.05;;;14.00;99.90;;;;;;5014228;28;20566;-61
2022/10/02 06:54:28;;;;;;;19.15;2.67;;;14.00;99.90;;;;;;5011484;28;20193;-59
2022/10/02 06:57:04;;;;;;;10.05;2.95;;;14.10;99.90;;;;;;5004851;28;20026;-59
2022/10/02 06:59:38;;;;;;;13.15;2.83;;;14.10;99.90;;;;;;5018931;28;20971;-61
2022/10/02 07:02:28;;;;;;;16.48;2.85;;;14.10;99.90;;;;;;5011395;28;20031;-59
2022/10/02 07:05:12;;;;;;;11.68;2.78;;;14.10;99.90;;;;;;5015698;28;20029;-59
2022/10/02 07:08:14;;;;;;;12.82;2.55;;;14.10;99.90;;;;;;5012267;28;20053;-61
2022/10/02 07:10:59;;;;;;;6.82;1.98;;;14.20;99.90;;;;;;4990486;28;20041;-61
2022/10/02 07:13:42;;;;;;;10.98;2.35;;;14.10;99.90;;;;;;5012405;28;20022;-59
2022/10/02 07:16:32;;;;;;;11.45;2.65;;;14.10;99.90;;;;;;5015759;28;20044;-61
2022/10/02 07:19:06;;;;;;;12.88;2.47;;;14.10;99.90;;;;;;5014087;28;20559;-50
2022/10/02 07:21:32;;;;;;;8.90;1.83;;;14.10;99.90;;;;;;5012083;28;20032;-53
2022/10/02 07:24:39;;;;;;;7.15;1.35;;;14.10;99.90;;;;;;5012301;28;20026;-52
2022/10/02 07:27:23;;;;;;;11.15;1.42;;;14.10;99.90;;;;;;5013689;28;20041;-50
2022/10/02 07:30:03;;;;;;;11.77;1.80;;;14.10;99.90;;;;;;5009949;28;20049;-54
2022/10/02 07:32:38;;;;;;;8.05;1.50;;;14.10;99.90;;;;;;5013034;28;20072;-49
2022/10/02 07:35:27;;;;;;;5.60;0.90;;;14.10;99.90;;;;;;5011922;28;20037;-53
2022/10/02 07:38:42;;;;;;;3.70;1.17;;;14.10;99.90;;;;;;5011128;28;20096;-51
2022/10/02 07:41:44;;;;;;;7.22;1.58;;;14.10;99.90;;;;;;5014768;28;20013;-53
2022/10/02 07:44:44;;;;;;;5.75;1.00;;;14.10;99.90;;;;;;5010051;28;20032;-50
2022/10/02 07:47:41;;;;;;;4.25;1.05;;;14.10;99.90;;;;;;5013888;28;20033;-53
2022/10/02 07:50:12;;;;;;;7.03;1.00;;;14.10;99.90;;;;;;5017400;28;20033;-49
2022/10/02 07:53:06;;;;;;;6.35;1.75;;;14.10;99.90;;;;;;5023434;28;20021;-55
2022/10/02 07:55:34;;;;;;;7.95;1.80;;;14.10;99.90;;;;;;5022031;28;20025;-54
2022/10/02 07:58:11;;;;;;;9.75;1.30;;;14.20;99.90;;;;;;5015054;28;20510;-53
2022/10/02 08:00:44;;;;;;;11.23;1.52;;;14.20;99.90;;;;;;5020361;28;20465;-55
2022/10/02 08:03:37;;;;;;;7.82;1.30;;;14.10;99.90;;;;;;5018854;28;20022;-54
2022/10/02 08:06:04;;;;;;;8.55;1.52;;;14.10;99.90;;;;;;5014190;28;20029;-54
2022/10/02 08:08:48;;;;;;;8.68;1.55;;;14.10;99.90;;;;;;5008675;28;20042;-56
2022/10/02 08:11:20;;;;;;;5.13;1.05;;;14.20;99.90;;;;;;5009812;28;20484;-52
2022/10/02 08:13:52;;;;;;;8.30;1.60;;;14.20;99.90;;;;;;5020079;28;20036;-51
2022/10/02 08:16:21;;;;;;;11.18;1.77;;;14.20;99.90;;;;;;5015307;28;20042;-53
2022/10/02 08:18:54;;;;;;;8.57;1.35;;;14.20;99.90;;;;;;5020183;28;20590;-51
2022/10/02 08:21:23;;;;;;;10.35;1.25;;;14.20;99.90;;;;;;5021042;28;20469;-55
2022/10/02 08:24:00;;;;;;;6.20;1.38;;;14.20;99.90;;;;;;5034099;28;20017;-52
2022/10/02 08:26:33;;;;;;;14.13;1.40;;;14.20;99.90;;;;;;5023057;28;20028;-54
2022/10/02 08:29:04;;;;;;;5.47;1.23;;;14.20;99.90;;;;;;5019390;28;20030;-52
2022/10/02 08:31:34;;;;;;;7.70;1.35;;;14.20;99.90;;;;;;5031963;28;20507;-50
2022/10/02 08:34:20;;;;;;;6.78;1.27;;;14.20;99.90;;;;;;5028175;28;20562;-54
2022/10/02 08:37:08;;;;;;;6.28;1.20;;;14.20;99.90;;;;;;5021819;28;20034;-50
2022/10/02 08:39:55;;;;;;;10.65;1.23;;;14.20;99.90;;;;;;5022019;28;20500;-52
2022/10/02 08:42:32;;;;;;;8.70;1.20;;;14.20;99.90;;;;;;5015918;28;20048;-54
2022/10/02 08:45:10;;;;;;;6.90;0.90;;;14.20;99.90;;;;;;5026737;28;20018;-55
2022/10/02 08:47:49;;;;;;;10.57;2.45;;;14.30;99.90;;;;;;5028626;28;20076;-53
2022/10/02 08:50:19;;;;;;;4.88;1.13;;;14.30;99.90;;;;;;5020589;28;20040;-52
2022/10/02 08:53:07;;;;;;;5.00;0.98;;;14.40;99.90;;;;;;5027008;28;20029;-56
2022/10/02 08:56:17;;;;;;;5.57;1.13;;;14.50;99.90;;;;;;5021561;28;20030;-54
2022/10/02 08:59:04;;;;;;;7.35;1.00;;;14.50;99.90;;;;;;5022423;28;20053;-51
2022/10/02 09:02:10;;;;;;;12.85;1.17;;;14.70;99.90;;;;;;5028932;28;20033;-54
2022/10/02 09:04:48;;;;;;;;;;;14.60;99.90;;;;;;5022300;28;20052;-52
2022/10/02 09:07:52;;;;;;;14.07;1.10;;;14.70;99.90;;;;;;5019745;28;19917;-54
2022/10/02 09:10:30;;;;;;;7.80;0.95;;;14.80;99.90;;;;;;5017418;28;20096;-53
2022/10/02 09:13:33;;;;;;;3.83;0.88;;;14.90;99.90;;;;;;5020838;28;20025;-55
2022/10/02 09:16:37;;;;;;;10.63;1.08;;;15.00;99.90;;;;;;5016585;28;20111;-52
2022/10/02 09:19:20;;;;;;;14.27;1.10;;;15.10;99.90;;;;;;5024228;28;20017;-54
2022/10/02 09:22:23;;;;;;;7.07;0.80;;;15.20;99.90;;;;;;5029361;28;20664;-52
2022/10/02 09:25:21;;;;;;;8.73;0.93;;;15.30;99.90;;;;;;5018558;28;20037;-54
2022/10/02 09:28:05;;;;;;;8.15;0.98;;;15.50;99.90;;;;;;5016710;28;20025;-55
2022/10/02 09:30:39;;;;;;;4.75;1.08;;;15.60;99.90;;;;;;5012845;28;20041;-56
2022/10/02 09:33:22;;;;;;;10.30;1.48;;;15.60;99.90;;;;;;5013089;28;20103;-52
2022/10/02 09:36:17;;;;;;;8.43;1.20;;;15.70;99.90;;;;;;5015843;28;20086;-56
2022/10/02 09:39:01;;;;;;;;;;;15.60;99.90;;;;;;5018512;28;20108;-55
2022/10/02 09:42:06;;;;;;;10.25;1.23;;;15.60;99.90;;;;;;5005301;28;19909;-56
2022/10/02 09:44:59;;;;;;;6.38;0.93;;;15.70;99.90;;;;;;4975683;28;20189;-56
2022/10/02 09:47:48;;;;;;;5.90;0.98;;;15.70;99.90;;;;;;4971303;28;20049;-51
2022/10/02 09:50:45;;;;;;;6.07;1.27;;;15.70;99.90;;;;;;5001620;28;20484;-51
2022/10/02 09:53:32;;;;;;;9.35;1.13;;;15.70;99.90;;;;;;5014036;28;20049;-52
2022/10/02 09:56:30;;;;;;;6.40;1.13;;;15.60;99.90;;;;;;5015883;28;20032;-56
2022/10/02 09:59:30;;;;;;;10.50;1.90;;;15.70;99.90;;;;;;5012510;28;20560;-56
2022/10/02 10:02:12;;;;;;;6.07;1.30;;;15.70;99.90;;;;;;4969644;28;20034;-57
2022/10/02 10:04:45;;;;;;;6.47;0.88;;;15.70;99.90;;;;;;5020047;28;20017;-55
2022/10/02 10:07:42;;;;;;;12.68;1.13;;;15.70;99.90;;;;;;5016898;28;20033;-53
2022/10/02 10:10:36;;;;;;;6.85;0.93;;;15.80;99.90;;;;;;5019801;28;20514;-56
2022/10/02 10:13:06;;;;;;;6.23;0.97;;;15.80;99.90;;;;;;5021511;28;20025;-55
2022/10/02 10:15:57;;;;;;;12.30;1.50;;;15.80;99.90;;;;;;5017930;28;20148;-52
2022/10/02 10:18:41;;;;;;;5.88;1.35;;;15.90;99.90;;;;;;5032707;28;20045;-53
2022/10/02 10:21:50;;;;;;;6.53;1.10;;;15.90;99.90;;;;;;5020339;28;20064;-55
2022/10/02 10:24:32;;;;;;;7.05;1.13;;;15.90;99.90;;;;;;5024061;28;20045;-55
2022/10/02 10:27:37;;;;;;;9.50;1.38;;;16.00;99.90;;;;;;5014620;28;20025;-54
2022/10/02 10:30:28;;;;;;;7.82;1.20;;;16.00;99.90;;;;;;5020738;28;20063;-55
2022/10/02 10:33:00;;;;;;;5.75;1.38;;;15.90;99.90;;;;;;5022667;28;20029;-55
2022/10/02 10:35:25;;;;;;;6.93;1.27;;;15.80;99.90;;;;;;5017748;28;20487;-53
2022/10/02 10:38:31;;;;;;;4.60;1.10;;;15.80;99.90;;;;;;5021010;28;20079;-56
2022/10/02 10:41:20;;;;;;;8.07;1.50;;;15.70;99.90;;;;;;5022886;28;20022;-55
2022/10/02 10:44:06;;;;;;;7.35;1.20;;;15.80;99.90;;;;;;5021883;28;20025;-56
2022/10/02 10:49:38;;;;;;;7.07;1.33;;;15.80;99.90;;;;;;5021408;28;20057;-58
2022/10/02 10:52:29;;;;;;;12.10;1.67;;;15.90;99.90;;;;;;5027696;28;20013;-58
2022/10/02 10:55:11;;;;;;;6.13;1.13;;;16.00;99.90;;;;;;5026494;28;20479;-58
2022/10/02 10:58:24;;;;;;;7.18;1.17;;;16.10;99.90;;;;;;5024311;28;20061;-58
2022/10/02 11:01:36;;;;;;;11.32;1.30;;;16.10;99.90;;;;;;4935018;28;20539;-58
2022/10/02 11:04:04;;;;;;;9.85;1.65;;;16.10;99.90;;;;;;5023234;28;20376;-58
2022/10/02 11:07:01;;;;;;;8.07;1.35;;;16.20;99.90;;;;;;5021397;28;20116;-56
2022/10/02 11:09:48;;;;;;;13.30;1.25;;;16.30;99.90;;;;;;5023857;28;20033;-58
2022/10/02 11:12:28;;;;;;;13.45;1.80;;;16.40;99.90;;;;;;5019488;28;20026;-55
2022/10/02 11:15:25;;;;;;;7.75;1.52;;;16.60;99.90;;;;;;5023615;28;20115;-55
2022/10/02 11:18:22;;;;;;;5.55;1.08;;;16.80;99.90;;;;;;5023419;28;20117;-58
2022/10/02 11:21:32;;;;;;;8.57;1.10;;;17.20;99.90;;;;;;5011632;28;20045;-53
2022/10/02 11:24:00;;;;;;;7.22;1.00;;;17.20;99.90;;;;;;4973862;28;20525;-56
2022/10/02 11:26:32;;;;;;;6.63;1.38;;;17.20;99.90;;;;;;5019588;28;20646;-57
2022/10/02 11:29:17;;;;;;;8.10;1.30;;;17.40;99.90;;;;;;5017519;28;20467;-56
2022/10/02 11:32:08;;;;;;;7.35;1.77;;;17.40;99.90;;;;;;5017211;28;20029;-56
2022/10/02 11:34:55;;;;;;;10.98;1.65;;;17.40;99.90;;;;;;5017284;28;20057;-57
2022/10/02 11:37:42;;;;;;;9.27;2.03;;;17.40;99.90;;;;;;5021406;28;20083;-57
2022/10/02 11:40:20;;;;;;;8.63;1.20;;;17.10;99.90;;;;;;5017437;28;20040;-56
2022/10/02 11:42:57;;;;;;;8.40;1.42;;;17.00;99.90;;;;;;5001449;28;20022;-56
2022/10/02 11:45:38;;;;;;;6.10;1.20;;;16.90;99.90;;;;;;5017531;28;20025;-55
2022/10/02 11:48:21;;;;;;;8.10;1.25;;;16.80;99.90;;;;;;5014750;28;20041;-53
2022/10/02 11:51:35;;;;;;;7.40;1.65;;;16.90;99.90;;;;;;4998583;28;20073;-55
2022/10/02 11:54:37;;;;;;;6.93;1.70;;;16.90;99.90;;;;;;4994320;28;20506;-56
2022/10/02 11:57:15;;;;;;;7.20;1.40;;;17.00;99.90;;;;;;5003423;28;20029;-52
2022/10/02 12:00:03;;;;;;;9.93;1.27;;;16.90;99.90;;;;;;5014812;28;20742;-57
2022/10/02 12:03:00;;;;;;;6.90;1.42;;;17.00;99.90;;;;;;5015220;28;20029;-56
2022/10/02 12:05:36;;;;;;;10.85;2.63;;;16.90;99.90;;;;;;5014016;28;20025;-56
2022/10/02 12:08:13;;;;;;;17.17;2.00;;;16.80;99.90;;;;;;5015267;28;20025;-55
2022/10/02 12:10:51;;;;;;;11.18;1.50;;;16.90;99.90;;;;;;5018514;28;20387;-55
2022/10/02 12:13:17;;;;;;;7.55;1.65;;;16.80;99.90;;;;;;5020079;28;20045;-53
2022/10/02 12:16:00;;;;;;;8.57;1.45;;;16.80;99.90;;;;;;5017803;28;20065;-53
2022/10/02 12:18:35;;;;;;;10.23;1.70;;;16.90;99.90;;;;;;5018289;28;20044;-54
2022/10/02 12:27:10;;;;;;;14.15;1.88;;;17.80;99.90;;;;;;5017003;28;20039;-56
2022/10/02 12:29:48;;;;;;;9.15;1.63;;;17.70;99.90;;;;;;5014331;28;20509;-56
2022/10/02 12:32:29;;;;;;;8.02;1.65;;;17.80;99.90;;;;;;5019232;28;20044;-54
2022/10/02 12:35:14;;;;;;;10.98;1.85;;;17.90;99.90;;;;;;5017273;28;20049;-56
2022/10/02 12:38:04;;;;;;;11.20;2.22;;;18.00;99.90;;;;;;5017902;28;20140;-57
2022/10/02 12:40:32;;;;;;;8.98;2.00;;;18.00;99.90;;;;;;5020615;28;20028;-53
2022/10/02 12:43:16;;;;;;;11.50;2.30;;;18.10;99.90;;;;;;5019702;28;20022;-55
2022/10/02 12:46:12;;;;;;;10.10;1.90;;;18.30;99.90;;;;;;5015233;28;20029;-56
2022/10/02 12:48:56;;;;;;;16.33;2.28;;;18.30;99.90;;;;;;5018205;28;22346;-57
2022/10/02 12:51:58;;;;;;;6.80;1.88;;;18.10;99.90;;;;;;5022910;28;20134;-54
2022/10/02 12:54:37;;;;;;;6.97;1.92;;;17.80;99.90;;;;;;5021225;28;20036;-56
2022/10/02 13:00:15;;;;;;;18.85;2.50;;;17.80;99.90;;;;;;5016464;28;20091;-57
2022/10/02 13:02:52;;;;;;;3.80;1.73;;;17.60;99.90;;;;;;5017354;28;20032;-58
2022/10/02 13:05:50;;;;;;;7.60;1.98;;;17.90;99.90;;;;;;5018096;28;20033;-57
2022/10/02 13:08:25;;;;;;;11.68;2.45;;;18.00;99.90;;;;;;5018631;28;20044;-56
2022/10/02 13:11:34;;;;;;;12.55;2.78;;;18.00;99.90;;;;;;5009243;28;20483;-59
2022/10/02 13:14:19;;;;;;;10.73;2.33;;;17.90;99.90;;;;;;5018419;28;20730;-59
2022/10/02 13:16:48;;;;;;;;;;;17.80;99.90;;;;;;5021751;28;20790;-57
2022/10/02 13:19:46;;;;;;;11.20;2.17;;;17.60;99.90;;;;;;5021355;28;20765;-57
2022/10/02 13:22:30;;;;;;;7.00;1.80;;;17.50;99.90;;;;;;5017451;28;20107;-58
2022/10/02 13:25:21;;;;;;;13.32;2.10;;;17.70;99.90;;;;;;5017455;28;20022;-58
2022/10/02 13:28:12;;;;;;;9.18;2.15;;;17.70;99.90;;;;;;5019720;28;20029;-58
2022/10/02 13:31:01;;;;;;;8.43;2.20;;;17.60;99.90;;;;;;5014946;28;20528;-58
2022/10/02 13:33:47;;;;;;;6.82;2.10;;;17.60;99.90;;;;;;5009004;28;20112;-58
2022/10/02 13:36:42;;;;;;;8.07;1.77;;;17.60;99.90;;;;;;4994374;28;20029;-59
2022/10/02 13:39:17;;;;;;;9.70;1.95;;;17.60;99.90;;;;;;5001240;28;20046;-58
2022/10/02 13:42:22;;;;;;;10.32;2.13;;;17.50;99.90;;;;;;5017630;28;20108;-59
2022/10/02 13:45:19;;;;;;;25.03;4.77;;;17.50;99.90;;;;;;5013766;28;20038;-57
2022/10/02 13:48:06;;;;;;;13.88;2.13;;;17.30;99.90;;;;;;5019514;28;20280;-59
2022/10/02 13:50:36;;;;;;;12.40;2.17;;;17.20;99.90;;;;;;5018882;28;20124;-58
2022/10/02 13:53:02;;;;;;;10.18;2.30;;;17.20;99.90;;;;;;5018879;28;20243;-59
2022/10/02 13:55:38;;;;;;;7.95;1.90;;;17.20;99.90;;;;;;5019212;28;20492;-60
2022/10/02 13:58:36;;;;;;;8.60;1.70;;;17.20;99.90;;;;;;5020600;28;20030;-59
2022/10/02 14:01:20;;;;;;;10.75;1.80;;;17.20;99.90;;;;;;5018520;28;20022;-59
2022/10/02 14:03:58;;;;;;;9.30;1.90;;;17.20;99.90;;;;;;5019242;28;20395;-59
2022/10/02 14:06:28;;;;;;;7.95;1.88;;;17.20;99.90;;;;;;5020767;28;20025;-58